sensor_id;sensor_type;location;lat;lon;timestamp;temperature;humidity
53520;DHT22;39397;53.204;5.778;2022-10-16T00:01:46;12.70;99.90
53520;DHT22;39397;53.204;5.778;2022-10-16T00:04:12;12.80;99.90
53520;DHT22;39397;53.204;5.778;2022-10-16T00:06:38;13.30;99.90
53520;DHT22;39397;53.204;5.778;2022-10-16T00:09:04;13.90;99.90
53520;DHT22;39397;53.204;5.778;2022-10-16T00:11:33;12.70;99.90
53520;DHT22;39397;53.204;5.778;2022-10-16T00:14:00;12.70;99.90
53520;DHT22;39397;53.204;5.778;2022-10-16T00:16:27;12.70;99.90
53520;DHT22;39397;53.204;5.778;2022-10-16T00:18:53;12.60;99.90
53520;DHT22;39397;53.204;5.778;2022-10-16T00:21:21;10.90;99.90
53520;DHT22;39397;53.204;5.778;2022-10-16T00:23:51;12.70;99.90
53520;DHT22;39397;53.204;5.778;2022-10-16T00:26:17;12.90;99.90
53520;DHT22;39397;53.204;5.778;2022-10-16T00:28:52;12.70;99.90
53520;DHT22;39397;53.204;5.778;2022-10-16T00:31:20;12.90;99.90
53520;DHT22;39397;53.204;5.778;2022-10-16T00:33:47;12.70;99.90
53520;DHT22;39397;53.204;5.778;2022-10-16T00:36:15;12.70;99.90
53520;DHT22;39397;53.204;5.778;2022-10-16T00:38:41;13.30;99.90
53520;DHT22;39397;53.204;5.778;2022-10-16T00:41:07;12.90;99.90
53520;DHT22;39397;53.204;5.778;2022-10-16T00:43:42;12.80;99.90
53520;DHT22;39397;53.204;5.778;2022-10-16T00:46:41;12.90;99.90
53520;DHT22;39397;53.204;5.778;2022-10-16T00:49:13;12.80;99.90
53520;DHT22;39397;53.204;5.778;2022-10-16T00:51:45;12.70;99.90
53520;DHT22;39397;53.204;5.778;2022-10-16T00:54:16;12.70;99.90
53520;DHT22;39397;53.204;5.778;2022-10-16T00:56:43;13.80;99.90
53520;DHT22;39397;53.204;5.778;2022-10-16T00:59:24;12.70;99.90
53520;DHT22;39397;53.204;5.778;2022-10-16T01:01:50;13.50;99.90
53520;DHT22;39397;53.204;5.778;2022-10-16T01:04:17;12.70;99.90
53520;DHT22;39397;53.204;5.778;2022-10-16T01:06:54;13.40;99.90
53520;DHT22;39397;53.204;5.778;2022-10-16T01:12:25;13.10;99.90
53520;DHT22;39397;53.204;5.778;2022-10-16T01:15:16;13.30;99.90
53520;DHT22;39397;53.204;5.778;2022-10-16T01:17:48;13.50;99.90
53520;DHT22;39397;53.204;5.778;2022-10-16T01:20:31;13.20;99.90
53520;DHT22;39397;53.204;5.778;2022-10-16T01:31:10;13.30;99.90
53520;DHT22;39397;53.204;5.778;2022-10-16T01:33:43;14.00;99.90
53520;DHT22;39397;53.204;5.778;2022-10-16T01:36:14;13.30;99.90
53520;DHT22;39397;53.204;5.778;2022-10-16T01:38:43;13.40;99.90
53520;DHT22;39397;53.204;5.778;2022-10-16T01:41:31;13.40;99.90
53520;DHT22;39397;53.204;5.778;2022-10-16T01:44:05;13.40;99.90
53520;DHT22;39397;53.204;5.778;2022-10-16T01:46:34;13.40;99.90
53520;DHT22;39397;53.204;5.778;2022-10-16T01:49:02;13.60;99.90
53520;DHT22;39397;53.204;5.778;2022-10-16T01:51:29;13.40;99.90
53520;DHT22;39397;53.204;5.778;2022-10-16T01:53:58;13.40;99.90
53520;DHT22;39397;53.204;5.778;2022-10-16T01:56:25;13.30;99.90
53520;DHT22;39397;53.204;5.778;2022-10-16T01:59:10;13.30;99.90
53520;DHT22;39397;53.204;5.778;2022-10-16T02:01:40;13.30;99.90
53520;DHT22;39397;53.204;5.778;2022-10-16T02:04:18;13.40;99.90
53520;DHT22;39397;53.204;5.778;2022-10-16T02:06:45;13.30;99.90
53520;DHT22;39397;53.204;5.778;2022-10-16T02:09:11;13.20;99.90
53520;DHT22;39397;53.204;5.778;2022-10-16T02:11:37;13.20;99.90
53520;DHT22;39397;53.204;5.778;2022-10-16T02:14:05;13.10;99.90
53520;DHT22;39397;53.204;5.778;2022-10-16T02:16:43;14.10;99.90
53520;DHT22;39397;53.204;5.778;2022-10-16T02:19:10;13.00;99.90
53520;DHT22;39397;53.204;5.778;2022-10-16T02:21:43;12.90;99.90
53520;DHT22;39397;53.204;5.778;2022-10-16T02:26:43;13.20;99.90
53520;DHT22;39397;53.204;5.778;2022-10-16T02:29:12;12.80;99.90
53520;DHT22;39397;53.204;5.778;2022-10-16T02:31:42;12.80;99.90
53520;DHT22;39397;53.204;5.778;2022-10-16T02:34:10;12.80;99.90
53520;DHT22;39397;53.204;5.778;2022-10-16T02:36:38;13.70;99.90
53520;DHT22;39397;53.204;5.778;2022-10-16T02:39:05;12.80;99.90
53520;DHT22;39397;53.204;5.778;2022-10-16T02:41:32;12.80;99.90
53520;DHT22;39397;53.204;5.778;2022-10-16T02:43:58;12.80;99.90
53520;DHT22;39397;53.204;5.778;2022-10-16T02:46:23;12.80;99.90
53520;DHT22;39397;53.204;5.778;2022-10-16T02:48:49;12.70;99.90
53520;DHT22;39397;53.204;5.778;2022-10-16T02:51:15;12.70;99.90
53520;DHT22;39397;53.204;5.778;2022-10-16T02:53:40;12.60;99.90
53520;DHT22;39397;53.204;5.778;2022-10-16T02:56:06;13.00;99.90
53520;DHT22;39397;53.204;5.778;2022-10-16T02:58:32;12.50;99.90
53520;DHT22;39397;53.204;5.778;2022-10-16T03:00:59;12.50;99.90
53520;DHT22;39397;53.204;5.778;2022-10-16T03:03:25;12.30;99.90
53520;DHT22;39397;53.204;5.778;2022-10-16T03:05:50;12.40;99.90
53520;DHT22;39397;53.204;5.778;2022-10-16T03:08:16;12.30;99.90
53520;DHT22;39397;53.204;5.778;2022-10-16T03:10:42;12.30;99.90
53520;DHT22;39397;53.204;5.778;2022-10-16T03:13:08;12.30;99.90
53520;DHT22;39397;53.204;5.778;2022-10-16T03:15:34;13.00;99.90
53520;DHT22;39397;53.204;5.778;2022-10-16T03:18:00;12.30;99.90
53520;DHT22;39397;53.204;5.778;2022-10-16T03:20:26;12.30;99.90
53520;DHT22;39397;53.204;5.778;2022-10-16T03:22:52;12.50;99.90
53520;DHT22;39397;53.204;5.778;2022-10-16T03:25:18;12.40;99.90
53520;DHT22;39397;53.204;5.778;2022-10-16T03:27:43;12.50;99.90
53520;DHT22;39397;53.204;5.778;2022-10-16T03:30:09;13.10;99.90
53520;DHT22;39397;53.204;5.778;2022-10-16T03:32:35;12.50;99.90
53520;DHT22;39397;53.204;5.778;2022-10-16T03:35:01;12.50;99.90
53520;DHT22;39397;53.204;5.778;2022-10-16T03:37:26;12.60;99.90
53520;DHT22;39397;53.204;5.778;2022-10-16T03:39:52;12.70;99.90
53520;DHT22;39397;53.204;5.778;2022-10-16T03:42:18;12.60;99.90
53520;DHT22;39397;53.204;5.778;2022-10-16T03:44:44;12.70;99.90
53520;DHT22;39397;53.204;5.778;2022-10-16T03:47:09;12.60;99.90
53520;DHT22;39397;53.204;5.778;2022-10-16T03:49:35;12.60;99.90
53520;DHT22;39397;53.204;5.778;2022-10-16T03:52:01;12.70;99.90
53520;DHT22;39397;53.204;5.778;2022-10-16T03:54:26;12.70;99.90
53520;DHT22;39397;53.204;5.778;2022-10-16T03:56:52;12.90;99.90
53520;DHT22;39397;53.204;5.778;2022-10-16T03:59:18;13.20;99.90
53520;DHT22;39397;53.204;5.778;2022-10-16T04:01:43;12.80;99.90
53520;DHT22;39397;53.204;5.778;2022-10-16T04:04:09;12.90;99.90
53520;DHT22;39397;53.204;5.778;2022-10-16T04:06:35;12.90;99.90
53520;DHT22;39397;53.204;5.778;2022-10-16T04:09:00;12.90;99.90
53520;DHT22;39397;53.204;5.778;2022-10-16T04:11:26;12.90;99.90
53520;DHT22;39397;53.204;5.778;2022-10-16T04:13:52;12.80;99.90
53520;DHT22;39397;53.204;5.778;2022-10-16T04:16:18;12.90;99.90
53520;DHT22;39397;53.204;5.778;2022-10-16T04:18:44;12.80;99.90
53520;DHT22;39397;53.204;5.778;2022-10-16T04:21:09;12.80;99.90
53520;DHT22;39397;53.204;5.778;2022-10-16T04:23:35;12.80;99.90
53520;DHT22;39397;53.204;5.778;2022-10-16T04:26:01;13.80;99.90
53520;DHT22;39397;53.204;5.778;2022-10-16T04:28:27;12.70;99.90
53520;DHT22;39397;53.204;5.778;2022-10-16T04:30:53;12.70;99.90
53520;DHT22;39397;53.204;5.778;2022-10-16T04:33:18;12.70;99.90
53520;DHT22;39397;53.204;5.778;2022-10-16T04:35:44;13.20;99.90
53520;DHT22;39397;53.204;5.778;2022-10-16T04:38:10;12.80;99.90
53520;DHT22;39397;53.204;5.778;2022-10-16T04:40:35;12.80;99.90
53520;DHT22;39397;53.204;5.778;2022-10-16T04:43:03;12.70;99.90
53520;DHT22;39397;53.204;5.778;2022-10-16T04:45:28;13.40;99.90
53520;DHT22;39397;53.204;5.778;2022-10-16T04:47:57;12.60;99.90
53520;DHT22;39397;53.204;5.778;2022-10-16T04:50:23;12.60;99.90
53520;DHT22;39397;53.204;5.778;2022-10-16T04:52:49;12.60;99.90
53520;DHT22;39397;53.204;5.778;2022-10-16T04:55:15;12.60;99.90
53520;DHT22;39397;53.204;5.778;2022-10-16T04:57:41;13.10;99.90
53520;DHT22;39397;53.204;5.778;2022-10-16T05:00:07;12.60;99.90
53520;DHT22;39397;53.204;5.778;2022-10-16T05:02:33;12.50;99.90
53520;DHT22;39397;53.204;5.778;2022-10-16T05:04:59;12.50;99.90
53520;DHT22;39397;53.204;5.778;2022-10-16T05:07:25;12.60;99.90
53520;DHT22;39397;53.204;5.778;2022-10-16T05:09:50;12.50;99.90
53520;DHT22;39397;53.204;5.778;2022-10-16T05:12:16;12.50;99.90
53520;DHT22;39397;53.204;5.778;2022-10-16T05:14:42;12.60;99.90
53520;DHT22;39397;53.204;5.778;2022-10-16T05:17:07;13.30;99.90
53520;DHT22;39397;53.204;5.778;2022-10-16T05:19:33;12.50;99.90
53520;DHT22;39397;53.204;5.778;2022-10-16T05:21:59;12.50;99.90
53520;DHT22;39397;53.204;5.778;2022-10-16T05:24:25;12.60;99.90
53520;DHT22;39397;53.204;5.778;2022-10-16T05:26:50;12.60;99.90
53520;DHT22;39397;53.204;5.778;2022-10-16T05:29:16;12.60;99.90
53520;DHT22;39397;53.204;5.778;2022-10-16T05:31:42;12.70;99.90
53520;DHT22;39397;53.204;5.778;2022-10-16T05:34:08;12.60;99.90
53520;DHT22;39397;53.204;5.778;2022-10-16T05:36:33;12.60;99.90
53520;DHT22;39397;53.204;5.778;2022-10-16T05:38:59;12.60;99.90
53520;DHT22;39397;53.204;5.778;2022-10-16T05:41:25;12.60;99.90
53520;DHT22;39397;53.204;5.778;2022-10-16T05:43:52;12.00;99.90
53520;DHT22;39397;53.204;5.778;2022-10-16T05:46:18;12.40;99.90
53520;DHT22;39397;53.204;5.778;2022-10-16T05:48:44;12.40;99.90
53520;DHT22;39397;53.204;5.778;2022-10-16T05:51:12;12.40;99.90
53520;DHT22;39397;53.204;5.778;2022-10-16T05:53:39;12.40;99.90
53520;DHT22;39397;53.204;5.778;2022-10-16T05:56:06;12.40;99.90
53520;DHT22;39397;53.204;5.778;2022-10-16T05:58:34;12.20;99.90
53520;DHT22;39397;53.204;5.778;2022-10-16T06:01:09;12.30;99.90
53520;DHT22;39397;53.204;5.778;2022-10-16T06:03:35;12.40;99.90
53520;DHT22;39397;53.204;5.778;2022-10-16T06:08:35;12.40;99.90
53520;DHT22;39397;53.204;5.778;2022-10-16T06:11:02;13.40;99.90
53520;DHT22;39397;53.204;5.778;2022-10-16T06:13:28;12.20;99.90
53520;DHT22;39397;53.204;5.778;2022-10-16T06:15:57;12.30;99.90
53520;DHT22;39397;53.204;5.778;2022-10-16T06:18:24;12.40;99.90
53520;DHT22;39397;53.204;5.778;2022-10-16T06:20:49;12.20;99.90
53520;DHT22;39397;53.204;5.778;2022-10-16T06:23:15;13.10;99.90
53520;DHT22;39397;53.204;5.778;2022-10-16T06:25:41;12.20;99.90
53520;DHT22;39397;53.204;5.778;2022-10-16T06:28:06;12.20;99.90
53520;DHT22;39397;53.204;5.778;2022-10-16T06:30:32;12.30;99.90
53520;DHT22;39397;53.204;5.778;2022-10-16T06:32:58;12.30;99.90
53520;DHT22;39397;53.204;5.778;2022-10-16T06:35:23;12.30;99.90
53520;DHT22;39397;53.204;5.778;2022-10-16T06:37:49;12.90;99.90
53520;DHT22;39397;53.204;5.778;2022-10-16T06:40:15;12.50;99.90
53520;DHT22;39397;53.204;5.778;2022-10-16T06:42:41;12.50;99.90
53520;DHT22;39397;53.204;5.778;2022-10-16T06:45:07;12.60;99.90
53520;DHT22;39397;53.204;5.778;2022-10-16T06:47:33;12.50;99.90
53520;DHT22;39397;53.204;5.778;2022-10-16T06:49:59;12.60;99.90
53520;DHT22;39397;53.204;5.778;2022-10-16T06:52:24;12.60;99.90
53520;DHT22;39397;53.204;5.778;2022-10-16T06:54:52;12.60;99.90
53520;DHT22;39397;53.204;5.778;2022-10-16T06:57:18;12.60;99.90
53520;DHT22;39397;53.204;5.778;2022-10-16T06:59:44;12.60;99.90
53520;DHT22;39397;53.204;5.778;2022-10-16T07:02:09;13.60;99.90
53520;DHT22;39397;53.204;5.778;2022-10-16T07:04:36;12.70;99.90
53520;DHT22;39397;53.204;5.778;2022-10-16T07:07:01;12.80;99.90
53520;DHT22;39397;53.204;5.778;2022-10-16T07:09:27;12.80;99.90
53520;DHT22;39397;53.204;5.778;2022-10-16T07:11:53;12.80;99.90
53520;DHT22;39397;53.204;5.778;2022-10-16T07:14:20;13.00;99.90
53520;DHT22;39397;53.204;5.778;2022-10-16T07:16:47;13.70;99.90
53520;DHT22;39397;53.204;5.778;2022-10-16T07:19:13;12.70;99.90
53520;DHT22;39397;53.204;5.778;2022-10-16T07:21:40;12.70;99.90
53520;DHT22;39397;53.204;5.778;2022-10-16T07:24:11;12.60;99.90
53520;DHT22;39397;53.204;5.778;2022-10-16T07:26:38;12.70;99.90
53520;DHT22;39397;53.204;5.778;2022-10-16T07:29:07;12.70;99.90
53520;DHT22;39397;53.204;5.778;2022-10-16T07:31:33;12.70;99.90
53520;DHT22;39397;53.204;5.778;2022-10-16T07:34:00;12.80;99.90
53520;DHT22;39397;53.204;5.778;2022-10-16T07:36:26;12.70;99.90
53520;DHT22;39397;53.204;5.778;2022-10-16T07:38:51;12.80;99.90
53520;DHT22;39397;53.204;5.778;2022-10-16T07:41:19;12.80;99.90
53520;DHT22;39397;53.204;5.778;2022-10-16T07:43:49;12.90;99.90
53520;DHT22;39397;53.204;5.778;2022-10-16T07:46:16;12.90;99.90
53520;DHT22;39397;53.204;5.778;2022-10-16T07:48:43;13.00;99.90
53520;DHT22;39397;53.204;5.778;2022-10-16T07:51:12;13.10;99.90
53520;DHT22;39397;53.204;5.778;2022-10-16T07:53:38;13.10;99.90
53520;DHT22;39397;53.204;5.778;2022-10-16T07:56:05;13.40;99.90
53520;DHT22;39397;53.204;5.778;2022-10-16T07:58:33;13.20;99.90
53520;DHT22;39397;53.204;5.778;2022-10-16T08:00:59;13.20;99.90
53520;DHT22;39397;53.204;5.778;2022-10-16T08:03:28;13.20;99.90
53520;DHT22;39397;53.204;5.778;2022-10-16T08:05:53;13.30;99.90
53520;DHT22;39397;53.204;5.778;2022-10-16T08:08:19;13.30;99.90
53520;DHT22;39397;53.204;5.778;2022-10-16T08:10:45;13.40;99.90
53520;DHT22;39397;53.204;5.778;2022-10-16T08:13:11;13.40;99.90
53520;DHT22;39397;53.204;5.778;2022-10-16T08:15:40;13.40;99.90
53520;DHT22;39397;53.204;5.778;2022-10-16T08:18:06;13.50;99.90
53520;DHT22;39397;53.204;5.778;2022-10-16T08:20:32;13.60;99.90
53520;DHT22;39397;53.204;5.778;2022-10-16T08:22:59;13.70;99.90
53520;DHT22;39397;53.204;5.778;2022-10-16T08:25:25;13.60;99.90
53520;DHT22;39397;53.204;5.778;2022-10-16T08:27:51;14.10;99.90
53520;DHT22;39397;53.204;5.778;2022-10-16T08:30:18;14.50;99.90
53520;DHT22;39397;53.204;5.778;2022-10-16T08:32:44;13.50;99.90
53520;DHT22;39397;53.204;5.778;2022-10-16T08:35:11;13.60;99.90
53520;DHT22;39397;53.204;5.778;2022-10-16T08:37:38;13.60;99.90
53520;DHT22;39397;53.204;5.778;2022-10-16T08:40:05;13.50;99.90
53520;DHT22;39397;53.204;5.778;2022-10-16T08:50:28;14.60;99.90
53520;DHT22;39397;53.204;5.778;2022-10-16T08:52:55;13.90;99.90
53520;DHT22;39397;53.204;5.778;2022-10-16T08:57:59;14.10;99.90
53520;DHT22;39397;53.204;5.778;2022-10-16T09:00:25;14.20;99.90
53520;DHT22;39397;53.204;5.778;2022-10-16T09:03:20;14.30;99.90
53520;DHT22;39397;53.204;5.778;2022-10-16T09:22:45;14.90;99.90
53520;DHT22;39397;53.204;5.778;2022-10-16T09:25:13;14.90;99.90
53520;DHT22;39397;53.204;5.778;2022-10-16T09:27:40;14.90;99.90
53520;DHT22;39397;53.204;5.778;2022-10-16T09:30:17;14.90;99.90
53520;DHT22;39397;53.204;5.778;2022-10-16T09:32:45;14.90;99.90
53520;DHT22;39397;53.204;5.778;2022-10-16T09:35:18;14.90;99.90
53520;DHT22;39397;53.204;5.778;2022-10-16T09:37:48;15.00;99.90
53520;DHT22;39397;53.204;5.778;2022-10-16T09:42:56;15.00;99.90
53520;DHT22;39397;53.204;5.778;2022-10-16T09:45:23;15.20;99.90
53520;DHT22;39397;53.204;5.778;2022-10-16T09:47:49;15.40;99.90
53520;DHT22;39397;53.204;5.778;2022-10-16T09:50:27;15.50;99.90
53520;DHT22;39397;53.204;5.778;2022-10-16T09:53:10;16.20;99.90
53520;DHT22;39397;53.204;5.778;2022-10-16T09:55:36;15.80;99.90
53520;DHT22;39397;53.204;5.778;2022-10-16T09:58:13;16.00;99.90
53520;DHT22;39397;53.204;5.778;2022-10-16T10:00:41;16.00;99.90
53520;DHT22;39397;53.204;5.778;2022-10-16T10:03:11;16.00;99.90
53520;DHT22;39397;53.204;5.778;2022-10-16T10:05:39;16.00;99.90
53520;DHT22;39397;53.204;5.778;2022-10-16T10:08:05;15.90;99.90
53520;DHT22;39397;53.204;5.778;2022-10-16T10:10:37;15.70;99.90
53520;DHT22;39397;53.204;5.778;2022-10-16T10:13:20;15.50;99.90
53520;DHT22;39397;53.204;5.778;2022-10-16T10:15:46;15.40;99.90
53520;DHT22;39397;53.204;5.778;2022-10-16T10:18:17;15.30;99.90
53520;DHT22;39397;53.204;5.778;2022-10-16T10:20:44;15.30;99.90
53520;DHT22;39397;53.204;5.778;2022-10-16T10:23:30;15.40;99.90
53520;DHT22;39397;53.204;5.778;2022-10-16T10:26:02;15.50;99.90
53520;DHT22;39397;53.204;5.778;2022-10-16T10:36:40;15.60;99.90
53520;DHT22;39397;53.204;5.778;2022-10-16T10:39:16;15.50;99.90
53520;DHT22;39397;53.204;5.778;2022-10-16T10:46:57;15.60;99.90
53520;DHT22;39397;53.204;5.778;2022-10-16T11:06:38;15.70;99.90
53520;DHT22;39397;53.204;5.778;2022-10-16T11:15:03;15.90;99.90
53520;DHT22;39397;53.204;5.778;2022-10-16T11:20:30;15.90;99.90
53520;DHT22;39397;53.204;5.778;2022-10-16T11:25:49;16.10;99.90
53520;DHT22;39397;53.204;5.778;2022-10-16T11:28:35;16.10;99.90
53520;DHT22;39397;53.204;5.778;2022-10-16T11:36:21;16.30;99.90
53520;DHT22;39397;53.204;5.778;2022-10-16T11:38:58;16.20;99.90
53520;DHT22;39397;53.204;5.778;2022-10-16T11:41:33;16.10;99.90
53520;DHT22;39397;53.204;5.778;2022-10-16T11:46:36;16.00;99.90
53520;DHT22;39397;53.204;5.778;2022-10-16T11:49:12;15.90;99.90
53520;DHT22;39397;53.204;5.778;2022-10-16T11:54:32;15.90;99.90
53520;DHT22;39397;53.204;5.778;2022-10-16T11:57:07;15.90;99.90
53520;DHT22;39397;53.204;5.778;2022-10-16T12:02:33;16.00;99.90
53520;DHT22;39397;53.204;5.778;2022-10-16T12:08:24;16.00;99.90
53520;DHT22;39397;53.204;5.778;2022-10-16T12:10:50;16.00;99.90
53520;DHT22;39397;53.204;5.778;2022-10-16T12:13:34;15.90;99.90
53520;DHT22;39397;53.204;5.778;2022-10-16T12:18:45;16.00;99.90
53520;DHT22;39397;53.204;5.778;2022-10-16T12:21:13;16.00;99.90
53520;DHT22;39397;53.204;5.778;2022-10-16T12:23:53;16.00;99.90
53520;DHT22;39397;53.204;5.778;2022-10-16T12:26:48;16.00;99.90
53520;DHT22;39397;53.204;5.778;2022-10-16T12:29:35;16.00;99.90
53520;DHT22;39397;53.204;5.778;2022-10-16T12:32:20;15.90;99.90
53520;DHT22;39397;53.204;5.778;2022-10-16T12:34:48;16.10;99.90
53520;DHT22;39397;53.204;5.778;2022-10-16T12:37:18;15.90;99.90
53520;DHT22;39397;53.204;5.778;2022-10-16T12:39:47;16.00;99.90
53520;DHT22;39397;53.204;5.778;2022-10-16T12:44:46;15.90;99.90
53520;DHT22;39397;53.204;5.778;2022-10-16T12:49:57;15.90;99.90
53520;DHT22;39397;53.204;5.778;2022-10-16T12:52:26;14.90;99.90
53520;DHT22;39397;53.204;5.778;2022-10-16T12:54:56;15.90;99.90
53520;DHT22;39397;53.204;5.778;2022-10-16T12:57:42;15.80;99.90
53520;DHT22;39397;53.204;5.778;2022-10-16T13:03:25;15.80;99.90
53520;DHT22;39397;53.204;5.778;2022-10-16T13:11:52;15.70;99.90
53520;DHT22;39397;53.204;5.778;2022-10-16T13:14:48;15.60;99.90
53520;DHT22;39397;53.204;5.778;2022-10-16T13:28:31;15.70;99.90
53520;DHT22;39397;53.204;5.778;2022-10-16T13:30:59;15.60;99.90
53520;DHT22;39397;53.204;5.778;2022-10-16T13:33:36;15.70;99.90
53520;DHT22;39397;53.204;5.778;2022-10-16T13:36:03;14.10;99.90
53520;DHT22;39397;53.204;5.778;2022-10-16T13:38:31;15.80;99.90
53520;DHT22;39397;53.204;5.778;2022-10-16T13:41:03;15.60;99.90
53520;DHT22;39397;53.204;5.778;2022-10-16T13:43:42;15.60;99.90
53520;DHT22;39397;53.204;5.778;2022-10-16T13:46:18;15.50;99.90
53520;DHT22;39397;53.204;5.778;2022-10-16T13:48:44;15.40;99.90
53520;DHT22;39397;53.204;5.778;2022-10-16T13:51:21;15.50;99.90
53520;DHT22;39397;53.204;5.778;2022-10-16T13:53:46;15.50;99.90
53520;DHT22;39397;53.204;5.778;2022-10-16T13:56:20;15.50;99.90
53520;DHT22;39397;53.204;5.778;2022-10-16T13:58:58;15.40;99.90
53520;DHT22;39397;53.204;5.778;2022-10-16T14:01:29;16.60;99.90
53520;DHT22;39397;53.204;5.778;2022-10-16T14:04:02;15.40;99.90
53520;DHT22;39397;53.204;5.778;2022-10-16T14:06:29;15.30;99.90
53520;DHT22;39397;53.204;5.778;2022-10-16T14:09:09;15.30;99.90
53520;DHT22;39397;53.204;5.778;2022-10-16T14:11:51;15.40;99.90
53520;DHT22;39397;53.204;5.778;2022-10-16T14:14:19;15.40;99.90
53520;DHT22;39397;53.204;5.778;2022-10-16T14:16:45;16.60;99.90
53520;DHT22;39397;53.204;5.778;2022-10-16T14:19:27;15.50;99.90
53520;DHT22;39397;53.204;5.778;2022-10-16T14:21:54;15.50;99.90
53520;DHT22;39397;53.204;5.778;2022-10-16T14:24:40;15.30;99.90
53520;DHT22;39397;53.204;5.778;2022-10-16T14:27:30;15.60;99.90
53520;DHT22;39397;53.204;5.778;2022-10-16T14:32:33;15.50;99.90
53520;DHT22;39397;53.204;5.778;2022-10-16T14:34:59;15.50;99.90
53520;DHT22;39397;53.204;5.778;2022-10-16T14:37:28;15.60;99.90
53520;DHT22;39397;53.204;5.778;2022-10-16T14:39:55;15.80;99.90
53520;DHT22;39397;53.204;5.778;2022-10-16T14:42:22;15.90;99.90
53520;DHT22;39397;53.204;5.778;2022-10-16T14:44:53;15.90;99.90
53520;DHT22;39397;53.204;5.778;2022-10-16T14:47:22;15.80;99.90
53520;DHT22;39397;53.204;5.778;2022-10-16T14:49:53;15.90;99.90
53520;DHT22;39397;53.204;5.778;2022-10-16T14:52:24;15.90;99.90
53520;DHT22;39397;53.204;5.778;2022-10-16T14:54:50;15.80;99.90
53520;DHT22;39397;53.204;5.778;2022-10-16T14:57:18;15.80;99.90
53520;DHT22;39397;53.204;5.778;2022-10-16T14:59:45;15.70;99.90
53520;DHT22;39397;53.204;5.778;2022-10-16T15:04:43;15.70;99.90
53520;DHT22;39397;53.204;5.778;2022-10-16T15:07:09;16.30;99.90
53520;DHT22;39397;53.204;5.778;2022-10-16T15:09:35;15.50;99.90
53520;DHT22;39397;53.204;5.778;2022-10-16T15:12:00;15.40;99.90
53520;DHT22;39397;53.204;5.778;2022-10-16T15:14:26;15.40;99.90
53520;DHT22;39397;53.204;5.778;2022-10-16T15:16:52;15.50;99.90
53520;DHT22;39397;53.204;5.778;2022-10-16T15:19:17;15.40;99.90
53520;DHT22;39397;53.204;5.778;2022-10-16T15:21:43;14.10;99.90
53520;DHT22;39397;53.204;5.778;2022-10-16T15:24:12;15.20;99.90
53520;DHT22;39397;53.204;5.778;2022-10-16T15:26:38;15.20;99.90
53520;DHT22;39397;53.204;5.778;2022-10-16T15:29:04;15.00;99.90
53520;DHT22;39397;53.204;5.778;2022-10-16T15:31:30;15.60;99.90
53520;DHT22;39397;53.204;5.778;2022-10-16T15:33:56;15.00;99.90
53520;DHT22;39397;53.204;5.778;2022-10-16T15:36:32;15.00;99.90
53520;DHT22;39397;53.204;5.778;2022-10-16T15:39:17;15.00;99.90
53520;DHT22;39397;53.204;5.778;2022-10-16T15:41:44;14.90;99.90
53520;DHT22;39397;53.204;5.778;2022-10-16T15:44:10;15.60;99.90
53520;DHT22;39397;53.204;5.778;2022-10-16T15:46:36;14.80;99.90
53520;DHT22;39397;53.204;5.778;2022-10-16T15:49:03;14.80;99.90
53520;DHT22;39397;53.204;5.778;2022-10-16T15:51:29;14.70;99.90
53520;DHT22;39397;53.204;5.778;2022-10-16T15:53:58;14.60;99.90
53520;DHT22;39397;53.204;5.778;2022-10-16T15:56:24;14.60;99.90
53520;DHT22;39397;53.204;5.778;2022-10-16T15:58:51;14.50;99.90
53520;DHT22;39397;53.204;5.778;2022-10-16T16:01:18;14.40;99.90
53520;DHT22;39397;53.204;5.778;2022-10-16T16:03:47;14.40;99.90
53520;DHT22;39397;53.204;5.778;2022-10-16T16:06:14;14.30;99.90
53520;DHT22;39397;53.204;5.778;2022-10-16T16:08:40;14.40;99.90
53520;DHT22;39397;53.204;5.778;2022-10-16T16:11:11;15.00;99.90
53520;DHT22;39397;53.204;5.778;2022-10-16T16:13:37;14.10;99.90
53520;DHT22;39397;53.204;5.778;2022-10-16T16:16:11;14.00;99.90
53520;DHT22;39397;53.204;5.778;2022-10-16T16:18:37;14.00;99.90
53520;DHT22;39397;53.204;5.778;2022-10-16T16:21:04;13.90;99.90
53520;DHT22;39397;53.204;5.778;2022-10-16T16:23:31;13.80;99.90
53520;DHT22;39397;53.204;5.778;2022-10-16T16:26:14;14.40;99.90
53520;DHT22;39397;53.204;5.778;2022-10-16T16:28:41;13.70;99.90
53520;DHT22;39397;53.204;5.778;2022-10-16T16:31:08;13.70;99.90
53520;DHT22;39397;53.204;5.778;2022-10-16T16:33:34;13.50;99.90
53520;DHT22;39397;53.204;5.778;2022-10-16T16:36:02;13.50;99.90
53520;DHT22;39397;53.204;5.778;2022-10-16T16:38:29;13.40;99.90
53520;DHT22;39397;53.204;5.778;2022-10-16T16:40:55;13.40;99.90
53520;DHT22;39397;53.204;5.778;2022-10-16T16:43:25;13.10;99.90
53520;DHT22;39397;53.204;5.778;2022-10-16T16:45:51;13.20;99.90
53520;DHT22;39397;53.204;5.778;2022-10-16T16:48:18;13.40;99.90
53520;DHT22;39397;53.204;5.778;2022-10-16T16:50:43;13.60;99.90
53520;DHT22;39397;53.204;5.778;2022-10-16T16:53:09;13.00;99.90
53520;DHT22;39397;53.204;5.778;2022-10-16T16:55:35;12.90;99.90
53520;DHT22;39397;53.204;5.778;2022-10-16T16:58:01;12.80;99.90
53520;DHT22;39397;53.204;5.778;2022-10-16T17:00:28;12.80;99.90
53520;DHT22;39397;53.204;5.778;2022-10-16T17:02:54;12.80;99.90
53520;DHT22;39397;53.204;5.778;2022-10-16T17:05:19;12.70;99.90
53520;DHT22;39397;53.204;5.778;2022-10-16T17:07:45;12.70;99.90
53520;DHT22;39397;53.204;5.778;2022-10-16T17:10:11;12.60;99.90
53520;DHT22;39397;53.204;5.778;2022-10-16T17:12:36;12.60;99.90
53520;DHT22;39397;53.204;5.778;2022-10-16T17:15:02;12.50;99.90
53520;DHT22;39397;53.204;5.778;2022-10-16T17:17:28;12.60;99.90
53520;DHT22;39397;53.204;5.778;2022-10-16T17:19:54;12.50;99.90
53520;DHT22;39397;53.204;5.778;2022-10-16T17:22:20;12.40;99.90
53520;DHT22;39397;53.204;5.778;2022-10-16T17:24:49;12.40;99.90
53520;DHT22;39397;53.204;5.778;2022-10-16T17:27:19;12.30;99.90
53520;DHT22;39397;53.204;5.778;2022-10-16T17:29:49;12.30;99.90
53520;DHT22;39397;53.204;5.778;2022-10-16T17:32:15;12.40;99.90
53520;DHT22;39397;53.204;5.778;2022-10-16T17:34:41;12.40;99.90
53520;DHT22;39397;53.204;5.778;2022-10-16T17:37:07;12.20;99.90
53520;DHT22;39397;53.204;5.778;2022-10-16T17:39:32;12.20;99.90
53520;DHT22;39397;53.204;5.778;2022-10-16T17:41:58;12.20;99.90
53520;DHT22;39397;53.204;5.778;2022-10-16T17:44:23;13.10;99.90
53520;DHT22;39397;53.204;5.778;2022-10-16T17:46:52;12.30;99.90
53520;DHT22;39397;53.204;5.778;2022-10-16T17:49:18;12.50;99.90
53520;DHT22;39397;53.204;5.778;2022-10-16T17:51:44;12.40;99.90
53520;DHT22;39397;53.204;5.778;2022-10-16T17:54:11;12.10;99.90
53520;DHT22;39397;53.204;5.778;2022-10-16T17:56:39;12.10;99.90
53520;DHT22;39397;53.204;5.778;2022-10-16T17:59:05;12.10;99.90